Time;durP1;ratioP1;P1;durP2;ratioP2;P2;SDS_P1;SDS_P2;PMS_P1;PMS_P2;Temp;Humidity;BMP_temperature;BMP_pressure;BME280_temperature;BME280_humidity;BME280_pressure;Samples;Min_cycle;Max_cycle;Signal;HPM_P1;HPM_P2
2021/08/24 00:00:44;;;;;;;1.50;1.00;;;16.00;98.20;;;;;;5067040;28;20466;-77
2021/08/24 00:03:11;;;;;;;1.53;1.00;;;16.00;98.20;;;;;;5036680;28;20474;-77
2021/08/24 00:05:39;;;;;;;1.50;1.00;;;16.00;98.20;;;;;;5047827;28;21035;-78
2021/08/24 00:08:07;;;;;;;1.57;1.00;;;16.00;98.20;;;;;;5069886;28;20551;-77
2021/08/24 00:10:42;;;;;;;1.50;0.90;;;16.00;98.20;;;;;;5069126;28;20489;-78
2021/08/24 00:13:10;;;;;;;1.60;1.00;;;16.00;98.20;;;;;;5058261;28;20493;-77
2021/08/24 00:15:39;;;;;;;1.50;1.00;;;16.00;98.20;;;;;;5060897;28;20462;-77
2021/08/24 00:18:07;;;;;;;1.50;1.00;;;15.90;98.20;;;;;;5067253;28;20489;-77
2021/08/24 00:20:34;;;;;;;1.50;1.00;;;15.90;98.20;;;;;;5062352;28;20470;-77
2021/08/24 00:23:03;;;;;;;1.53;1.00;;;15.90;98.20;;;;;;5073370;28;20492;-77
2021/08/24 00:25:30;;;;;;;1.57;1.00;;;15.90;98.20;;;;;;5060127;28;20473;-77
2021/08/24 00:27:57;;;;;;;1.53;1.00;;;15.90;98.20;;;;;;5062025;28;20504;-78
2021/08/24 00:30:24;;;;;;;1.50;1.00;;;15.90;98.20;;;;;;5062786;28;20547;-77
2021/08/24 00:32:52;;;;;;;1.50;1.00;;;15.90;98.20;;;;;;5062556;28;20491;-77
2021/08/24 00:35:19;;;;;;;1.60;1.00;;;15.80;98.20;;;;;;5066094;28;20562;-77
2021/08/24 00:37:46;;;;;;;1.50;0.90;;;15.80;98.20;;;;;;5067725;28;20655;-77
2021/08/24 00:40:15;;;;;;;1.50;1.00;;;15.80;98.20;;;;;;5066590;28;20475;-77
2021/08/24 00:42:43;;;;;;;1.50;1.00;;;15.80;98.20;;;;;;5063698;28;20484;-77
2021/08/24 00:45:18;;;;;;;1.50;1.00;;;15.80;98.20;;;;;;5052921;28;20466;-77
2021/08/24 00:47:55;;;;;;;1.50;1.00;;;15.80;98.20;;;;;;5059713;28;20581;-78
2021/08/24 00:50:35;;;;;;;1.60;1.10;;;15.70;98.20;;;;;;5050898;28;20488;-77
2021/08/24 00:53:10;;;;;;;1.57;1.00;;;15.70;98.20;;;;;;5063690;28;20488;-77
2021/08/24 00:55:42;;;;;;;1.57;1.00;;;15.70;98.20;;;;;;5055581;28;20508;-78
2021/08/24 00:58:13;;;;;;;1.50;1.00;;;15.70;98.20;;;;;;5063466;28;20635;-77
2021/08/24 01:00:41;;;;;;;1.50;1.00;;;15.60;98.20;;;;;;5062666;28;20469;-77
2021/08/24 01:03:19;;;;;;;1.57;1.00;;;15.60;98.20;;;;;;5063787;28;20493;-77
2021/08/24 01:05:50;;;;;;;1.50;1.00;;;15.60;98.20;;;;;;5059346;28;20477;-77
2021/08/24 01:11:34;;;;;;;1.57;1.00;;;15.50;98.20;;;;;;5053763;28;20910;-77
2021/08/24 01:14:25;;;;;;;1.50;1.10;;;15.50;98.20;;;;;;5072520;28;20584;-77
2021/08/24 01:17:07;;;;;;;1.60;1.00;;;15.50;98.20;;;;;;5060147;28;20580;-78
2021/08/24 01:20:07;;;;;;;1.50;1.00;;;15.50;98.20;;;;;;5064371;28;20455;-78
2021/08/24 01:23:12;;;;;;;1.50;1.00;;;15.50;98.20;;;;;;5005796;28;20490;-77
2021/08/24 01:25:45;;;;;;;1.53;1.00;;;15.50;98.20;;;;;;5065167;28;20457;-78
2021/08/24 01:28:32;;;;;;;1.53;0.90;;;15.50;98.20;;;;;;5059296;28;20474;-78
2021/08/24 01:31:23;;;;;;;1.53;1.00;;;15.50;98.20;;;;;;5061880;28;21008;-77
2021/08/24 01:34:09;;;;;;;1.50;1.00;;;15.50;98.20;;;;;;5070243;28;20881;-78
2021/08/24 01:40:10;;;;;;;1.50;1.00;;;15.40;98.20;;;;;;5041655;28;20481;-78
2021/08/24 01:42:40;;;;;;;1.53;1.00;;;15.40;98.20;;;;;;5061432;28;20477;-78
2021/08/24 01:45:15;;;;;;;1.57;1.00;;;15.40;98.20;;;;;;5065828;28;20460;-77
2021/08/24 01:47:52;;;;;;;1.50;1.00;;;15.40;98.20;;;;;;5066330;28;20491;-78
2021/08/24 01:51:04;;;;;;;1.50;1.00;;;15.30;98.20;;;;;;5062357;28;20477;-78
2021/08/24 01:54:07;;;;;;;1.50;1.00;;;15.30;98.20;;;;;;5016427;28;20492;-78
2021/08/24 01:56:48;;;;;;;1.50;1.00;;;15.30;98.20;;;;;;5065366;28;20471;-78
2021/08/24 01:59:28;;;;;;;1.60;1.00;;;15.30;98.20;;;;;;5072977;28;20450;-79
2021/08/24 02:07:45;;;;;;;1.50;1.00;;;15.30;98.20;;;;;;5059681;28;20500;-78
2021/08/24 02:10:25;;;;;;;1.50;1.00;;;15.30;98.20;;;;;;5071977;28;20493;-78
2021/08/24 02:12:58;;;;;;;1.50;1.00;;;15.30;98.20;;;;;;5067566;28;20487;-77
2021/08/24 02:15:34;;;;;;;1.50;1.00;;;15.30;98.20;;;;;;5067126;28;21012;-78
2021/08/24 02:18:02;;;;;;;1.60;1.00;;;15.30;98.20;;;;;;5063554;28;20496;-78
2021/08/24 02:20:35;;;;;;;1.57;1.00;;;15.30;98.20;;;;;;5067324;28;20844;-78
2021/08/24 02:23:13;;;;;;;1.60;1.10;;;15.30;98.20;;;;;;5071620;28;20975;-77
2021/08/24 02:28:36;;;;;;;1.60;1.10;;;15.20;98.20;;;;;;5058429;28;20474;-78
2021/08/24 02:31:13;;;;;;;1.53;1.03;;;15.20;98.20;;;;;;5064531;28;20477;-78
2021/08/24 02:33:54;;;;;;;1.53;1.00;;;15.20;98.20;;;;;;5074976;28;20468;-78
2021/08/24 02:36:25;;;;;;;1.60;1.00;;;15.20;98.20;;;;;;5063781;28;20468;-78
2021/08/24 02:39:18;;;;;;;1.53;1.10;;;15.20;98.20;;;;;;5079611;28;20461;-78
2021/08/24 02:42:02;;;;;;;1.50;1.00;;;15.20;98.20;;;;;;5059324;28;20504;-78
2021/08/24 02:45:10;;;;;;;1.50;1.00;;;15.10;98.20;;;;;;5067539;28;20858;-78
2021/08/24 02:47:54;;;;;;;1.50;1.00;;;15.10;98.20;;;;;;5078611;23;20524;-75
2021/08/24 02:50:28;;;;;;;1.53;1.00;;;15.10;98.20;;;;;;4960891;28;21001;-76
2021/08/24 02:53:02;;;;;;;1.53;1.00;;;15.10;98.20;;;;;;4962125;28;20565;-76
2021/08/24 02:55:34;;;;;;;1.50;1.00;;;15.10;98.20;;;;;;5000105;22;20500;-77
2021/08/24 02:58:00;;;;;;;1.50;1.00;;;15.00;98.20;;;;;;4993281;28;20531;-77
2021/08/24 03:00:33;;;;;;;1.50;1.07;;;15.00;98.20;;;;;;4990943;28;20461;-76
2021/08/24 03:03:02;;;;;;;1.50;1.00;;;15.00;98.20;;;;;;4994805;28;20500;-75
2021/08/24 03:05:45;;;;;;;1.50;1.00;;;15.00;98.20;;;;;;4990188;28;20469;-76
2021/08/24 03:08:27;;;;;;;1.53;1.00;;;14.90;98.20;;;;;;4995880;28;21025;-77
2021/08/24 03:11:03;;;;;;;1.53;1.07;;;14.90;98.20;;;;;;4980241;28;20485;-75
2021/08/24 03:13:41;;;;;;;1.50;1.00;;;14.90;98.20;;;;;;5069043;23;20508;-77
2021/08/24 03:16:28;;;;;;;1.50;1.03;;;14.90;98.20;;;;;;4989887;28;20479;-78
2021/08/24 03:19:08;;;;;;;1.53;1.00;;;14.90;98.20;;;;;;5007073;28;20457;-78
2021/08/24 03:21:40;;;;;;;1.50;1.00;;;14.80;98.20;;;;;;4978510;28;20511;-78
2021/08/24 03:24:19;;;;;;;1.50;1.10;;;14.80;98.20;;;;;;5000335;28;20524;-77
2021/08/24 03:26:48;;;;;;;1.50;1.00;;;14.80;98.20;;;;;;4994790;28;20575;-77
2021/08/24 03:29:27;;;;;;;1.60;1.10;;;14.80;98.20;;;;;;5004344;28;20485;-78
2021/08/24 03:32:15;;;;;;;1.53;1.00;;;14.80;98.20;;;;;;4988797;28;20476;-78
2021/08/24 03:34:56;;;;;;;1.53;1.10;;;14.70;98.20;;;;;;5000838;28;20452;-77
2021/08/24 03:37:26;;;;;;;1.50;1.00;;;14.70;98.20;;;;;;5000981;28;20506;-77
2021/08/24 03:39:57;;;;;;;1.60;1.10;;;14.70;98.20;;;;;;4995779;28;20571;-76
2021/08/24 03:42:26;;;;;;;1.53;1.10;;;14.70;98.20;;;;;;4994839;28;21008;-77
2021/08/24 03:44:53;;;;;;;1.50;0.97;;;14.60;98.20;;;;;;5001938;28;20479;-77
2021/08/24 03:47:20;;;;;;;1.50;1.00;;;14.60;98.20;;;;;;4994602;28;20520;-77
2021/08/24 03:52:30;;;;;;;1.57;1.10;;;14.60;98.20;;;;;;4994468;28;20486;-78
2021/08/24 03:54:57;;;;;;;1.50;1.00;;;14.50;98.20;;;;;;5001733;28;20858;-76
2021/08/24 03:57:24;;;;;;;1.53;1.07;;;14.50;98.20;;;;;;4978567;28;20535;-77
2021/08/24 03:59:55;;;;;;;1.50;1.00;;;14.50;98.20;;;;;;4976911;28;20462;-78
2021/08/24 04:02:22;;;;;;;1.50;1.00;;;14.50;98.20;;;;;;4982138;28;20835;-77
2021/08/24 04:04:53;;;;;;;1.50;1.00;;;14.50;98.20;;;;;;4995397;28;20461;-77
2021/08/24 04:07:20;;;;;;;1.50;1.00;;;14.40;98.20;;;;;;4995979;28;20481;-77
2021/08/24 04:09:52;;;;;;;1.50;1.00;;;14.40;98.20;;;;;;5004488;28;20490;-77
2021/08/24 04:12:23;;;;;;;1.53;1.10;;;14.40;98.20;;;;;;4997090;28;20575;-77
2021/08/24 04:14:53;;;;;;;1.50;1.00;;;14.40;98.20;;;;;;4995550;28;20988;-77
2021/08/24 04:17:21;;;;;;;1.50;1.00;;;14.40;98.20;;;;;;5005247;28;20551;-78
2021/08/24 04:19:52;;;;;;;1.50;1.10;;;14.40;98.20;;;;;;4997252;28;20511;-77
2021/08/24 04:22:23;;;;;;;1.53;1.00;;;14.40;98.20;;;;;;4993097;28;20502;-78
2021/08/24 04:24:51;;;;;;;1.60;1.27;;;14.30;98.20;;;;;;4993146;28;20834;-78
2021/08/24 04:27:58;;;;;;;1.57;1.10;;;14.30;98.20;;;;;;4991517;28;20475;-77
2021/08/24 04:30:32;;;;;;;1.60;1.10;;;14.30;98.20;;;;;;4982848;28;20504;-77
2021/08/24 04:33:04;;;;;;;1.50;1.00;;;14.30;98.20;;;;;;4999577;28;20911;-78
2021/08/24 04:38:35;;;;;;;1.60;1.10;;;14.20;98.20;;;;;;4954007;28;20496;-76
2021/08/24 04:44:08;;;;;;;1.60;1.10;;;14.20;98.20;;;;;;5003626;28;20448;-77
2021/08/24 04:49:43;;;;;;;1.50;1.00;;;14.20;98.20;;;;;;5008218;28;20563;-76
2021/08/24 04:52:34;;;;;;;1.50;1.00;;;14.20;98.20;;;;;;4963474;28;20479;-75
2021/08/24 04:55:49;;;;;;;1.50;1.00;;;14.20;98.20;;;;;;4951192;29;20910;-76
2021/08/24 04:58:51;;;;;;;1.57;1.10;;;14.20;98.20;;;;;;4920868;29;20471;-77
2021/08/24 05:01:34;;;;;;;1.50;1.00;;;14.20;98.20;;;;;;4923577;28;20489;-77
2021/08/24 05:07:31;;;;;;;1.53;1.00;;;14.20;98.20;;;;;;4879194;29;20500;-76
2021/08/24 05:10:12;;;;;;;1.50;1.00;;;14.20;98.20;;;;;;4883592;29;20484;-76
2021/08/24 05:12:41;;;;;;;1.60;1.10;;;14.10;98.20;;;;;;4934192;28;20496;-76
2021/08/24 05:15:16;;;;;;;1.53;1.07;;;14.20;98.20;;;;;;4999171;28;20887;-77
2021/08/24 05:18:00;;;;;;;1.50;1.00;;;14.20;98.20;;;;;;5008325;28;20849;-77
2021/08/24 05:20:28;;;;;;;1.50;0.90;;;14.20;98.20;;;;;;4998700;28;20686;-77
2021/08/24 05:22:56;;;;;;;1.50;1.00;;;14.20;98.20;;;;;;4989147;28;20844;-75
2021/08/24 05:25:36;;;;;;;1.50;1.00;;;14.20;98.20;;;;;;4972092;28;20471;-76
2021/08/24 05:28:21;;;;;;;1.50;1.10;;;14.20;98.20;;;;;;4979914;28;20953;-77
2021/08/24 05:30:48;;;;;;;1.50;1.00;;;14.30;98.20;;;;;;4960682;28;20482;-77
2021/08/24 05:39:10;;;;;;;1.53;1.00;;;14.40;98.20;;;;;;4974676;28;20489;-76
2021/08/24 05:41:40;;;;;;;1.50;1.03;;;14.50;98.20;;;;;;4972276;28;20901;-76
2021/08/24 05:44:12;;;;;;;1.53;1.00;;;14.60;98.20;;;;;;4981650;28;20495;-78
2021/08/24 05:46:42;;;;;;;1.50;1.00;;;14.70;98.20;;;;;;4976365;28;21016;-75
2021/08/24 05:49:16;;;;;;;1.50;1.00;;;14.80;98.20;;;;;;4986432;28;20469;-77
2021/08/24 05:51:59;;;;;;;1.53;0.90;;;15.00;98.20;;;;;;4970276;28;20484;-76
2021/08/24 05:54:31;;;;;;;1.57;1.00;;;15.10;98.20;;;;;;4974749;28;20476;-74
2021/08/24 05:57:12;;;;;;;1.57;1.10;;;15.30;98.20;;;;;;4970590;28;20484;-76
2021/08/24 05:59:46;;;;;;;1.50;1.00;;;15.40;98.20;;;;;;4973176;28;20581;-76
2021/08/24 06:02:21;;;;;;;1.50;1.00;;;15.50;98.20;;;;;;4966661;28;20535;-77
2021/08/24 06:04:54;;;;;;;1.57;0.90;;;15.60;98.20;;;;;;4973776;28;20500;-75
2021/08/24 06:07:28;;;;;;;1.50;1.00;;;15.80;98.20;;;;;;4976892;28;20579;-76
2021/08/24 06:10:15;;;;;;;1.53;1.00;;;15.90;98.20;;;;;;4972315;28;20459;-77
2021/08/24 06:12:49;;;;;;;1.60;1.10;;;16.10;98.20;;;;;;4976170;28;20476;-76
2021/08/24 06:15:24;;;;;;;1.50;1.00;;;16.30;98.20;;;;;;4972075;28;20581;-77
2021/08/24 06:17:52;;;;;;;1.60;1.10;;;16.40;98.20;;;;;;4982850;28;20516;-77
2021/08/24 06:20:20;;;;;;;1.57;0.90;;;16.50;98.20;;;;;;4965780;28;20478;-77
2021/08/24 06:22:50;;;;;;;1.60;1.10;;;16.60;98.20;;;;;;4984069;28;20519;-76
2021/08/24 06:25:22;;;;;;;1.57;1.00;;;16.80;98.20;;;;;;4962866;28;20875;-76
2021/08/24 06:30:55;;;;;;;1.57;1.00;;;17.00;98.20;;;;;;4968565;28;20469;-76
2021/08/24 06:33:34;;;;;;;1.53;1.00;;;17.20;98.20;;;;;;4955349;28;21069;-77
2021/08/24 06:36:02;;;;;;;1.57;1.03;;;17.40;98.20;;;;;;4984982;23;20472;-76
2021/08/24 06:38:31;;;;;;;1.50;1.00;;;17.50;97.10;;;;;;5000996;28;20562;-77
2021/08/24 06:40:58;;;;;;;1.53;1.00;;;17.60;97.50;;;;;;4990830;28;20469;-76
2021/08/24 06:43:25;;;;;;;1.53;1.00;;;17.80;96.00;;;;;;5018741;28;20486;-77
2021/08/24 06:45:53;;;;;;;1.53;0.90;;;17.90;96.00;;;;;;4995070;28;20469;-78
2021/08/24 06:48:20;;;;;;;1.60;1.00;;;18.00;95.30;;;;;;5041879;28;20463;-77
2021/08/24 06:50:47;;;;;;;1.53;0.90;;;18.10;95.10;;;;;;5014072;28;20470;-77
2021/08/24 06:53:14;;;;;;;1.50;0.93;;;18.20;94.40;;;;;;5041089;28;20941;-76
2021/08/24 06:55:41;;;;;;;1.50;0.90;;;18.30;94.40;;;;;;5019284;28;20485;-78
2021/08/24 06:58:09;;;;;;;1.60;1.10;;;18.40;93.50;;;;;;5009461;28;20520;-76
2021/08/24 07:00:38;;;;;;;1.50;1.00;;;18.50;93.40;;;;;;4997363;28;20461;-77
2021/08/24 07:03:06;;;;;;;1.50;1.00;;;18.70;92.80;;;;;;5039666;28;20610;-78
2021/08/24 07:05:34;;;;;;;1.53;0.90;;;18.80;92.50;;;;;;5025888;28;20464;-77
2021/08/24 07:08:01;;;;;;;1.50;0.90;;;18.80;92.60;;;;;;5013319;28;20506;-77
2021/08/24 07:10:29;;;;;;;1.60;1.00;;;18.90;92.80;;;;;;5004697;28;20983;-78
2021/08/24 07:12:56;;;;;;;1.53;1.10;;;19.00;91.70;;;;;;5014307;28;20485;-77
2021/08/24 07:15:24;;;;;;;1.53;1.00;;;19.20;91.80;;;;;;5005656;28;20464;-77
2021/08/24 07:17:55;;;;;;;1.53;1.00;;;19.40;90.70;;;;;;5013088;28;20579;-77
2021/08/24 07:20:24;;;;;;;1.57;1.00;;;19.40;90.50;;;;;;5002671;28;20472;-79
2021/08/24 07:22:52;;;;;;;1.50;0.90;;;19.50;90.40;;;;;;5026417;28;20573;-77
2021/08/24 07:25:22;;;;;;;1.53;0.90;;;19.50;90.00;;;;;;5024757;28;20470;-78
2021/08/24 07:27:49;;;;;;;1.50;0.90;;;19.60;89.90;;;;;;5033027;28;20491;-76
2021/08/24 07:30:16;;;;;;;1.57;1.00;;;19.60;89.90;;;;;;5018979;28;20841;-77
2021/08/24 07:32:43;;;;;;;1.50;0.90;;;19.80;89.70;;;;;;5041915;28;20501;-78
2021/08/24 07:35:11;;;;;;;1.53;0.97;;;19.90;88.50;;;;;;5024103;28;20493;-78
2021/08/24 07:37:39;;;;;;;1.50;0.90;;;20.00;88.60;;;;;;5011905;28;21011;-77
2021/08/24 07:40:09;;;;;;;1.57;0.90;;;20.20;88.50;;;;;;5006822;28;20456;-77
2021/08/24 07:42:37;;;;;;;1.60;1.00;;;20.20;88.10;;;;;;5005753;28;20482;-79
2021/08/24 07:45:05;;;;;;;1.50;0.90;;;20.20;88.40;;;;;;5005015;28;20905;-78
2021/08/24 07:47:32;;;;;;;1.50;0.90;;;20.30;87.80;;;;;;5009237;28;20490;-78
2021/08/24 07:49:58;;;;;;;1.53;0.90;;;20.30;87.30;;;;;;5009150;28;20461;-79
2021/08/24 07:52:25;;;;;;;1.57;1.00;;;20.40;87.30;;;;;;5020220;28;21516;-77
2021/08/24 07:54:55;;;;;;;1.50;1.00;;;20.50;87.50;;;;;;5025824;28;20475;-78
2021/08/24 07:57:22;;;;;;;1.50;0.90;;;20.60;86.80;;;;;;5030212;28;20555;-77
2021/08/24 07:59:49;;;;;;;1.53;0.90;;;20.70;86.10;;;;;;5029655;28;20463;-77
2021/08/24 08:02:17;;;;;;;1.50;1.00;;;20.80;85.80;;;;;;5034571;28;21051;-79
2021/08/24 08:04:44;;;;;;;1.50;0.90;;;21.00;85.70;;;;;;5034750;28;20455;-82
2021/08/24 08:07:13;;;;;;;1.53;0.90;;;21.00;84.90;;;;;;5026396;28;21482;-82
2021/08/24 08:09:40;;;;;;;1.53;0.90;;;21.10;84.30;;;;;;5014462;28;20849;-77
2021/08/24 08:12:09;;;;;;;1.50;0.93;;;21.10;85.20;;;;;;5018585;28;20567;-76
2021/08/24 08:14:36;;;;;;;1.50;0.90;;;21.20;84.90;;;;;;5023730;28;20479;-80
2021/08/24 08:17:03;;;;;;;1.50;0.90;;;21.20;83.30;;;;;;5037349;28;20485;-80
2021/08/24 08:19:30;;;;;;;1.50;0.90;;;21.20;83.60;;;;;;5035561;28;20572;-77
2021/08/24 08:21:57;;;;;;;1.50;0.90;;;21.40;84.10;;;;;;5016740;28;20487;-79
2021/08/24 08:24:24;;;;;;;1.53;1.00;;;21.50;82.40;;;;;;5005612;28;20468;-79
2021/08/24 08:26:50;;;;;;;1.50;0.90;;;21.50;82.50;;;;;;5000041;28;20530;-78
2021/08/24 08:29:19;;;;;;;1.50;0.90;;;21.60;84.10;;;;;;5011342;28;20820;-77
2021/08/24 08:31:48;;;;;;;1.50;0.90;;;21.70;82.80;;;;;;5006824;28;20513;-78
2021/08/24 08:34:15;;;;;;;1.50;0.90;;;21.70;82.20;;;;;;5034339;28;21033;-77
2021/08/24 08:36:43;;;;;;;1.53;0.90;;;21.70;82.00;;;;;;5011525;28;20582;-77
2021/08/24 08:39:10;;;;;;;1.50;0.90;;;21.80;81.90;;;;;;5014686;28;20836;-79
2021/08/24 08:41:47;;;;;;;1.50;0.90;;;21.80;79.50;;;;;;5010409;28;20486;-77
2021/08/24 08:44:24;;;;;;;1.50;0.90;;;21.80;78.80;;;;;;5030875;28;20880;-76
2021/08/24 08:47:01;;;;;;;1.50;0.97;;;21.80;80.00;;;;;;5031598;28;20480;-77
2021/08/24 08:49:40;;;;;;;1.50;0.90;;;21.90;79.80;;;;;;5033815;28;20465;-76
2021/08/24 08:52:14;;;;;;;1.53;0.90;;;22.10;79.80;;;;;;5021291;28;20488;-78
2021/08/24 08:54:58;;;;;;;1.60;1.10;;;22.30;79.40;;;;;;5028534;28;20795;-77
2021/08/24 08:57:30;;;;;;;1.50;1.00;;;22.30;78.40;;;;;;5020415;28;20582;-77
2021/08/24 09:00:06;;;;;;;1.50;0.90;;;22.30;79.50;;;;;;5009204;28;20534;-78
2021/08/24 09:02:42;;;;;;;1.50;0.90;;;22.50;78.30;;;;;;5029089;28;20484;-78
2021/08/24 09:05:11;;;;;;;1.50;0.90;;;22.50;77.50;;;;;;5025231;28;20469;-77
2021/08/24 09:07:41;;;;;;;1.50;0.90;;;22.60;78.60;;;;;;5012527;28;20642;-78
2021/08/24 09:10:12;;;;;;;1.50;0.90;;;22.70;77.90;;;;;;4999835;28;20465;-76
2021/08/24 09:12:39;;;;;;;1.50;1.00;;;22.70;78.10;;;;;;5030816;28;20484;-79
2021/08/24 09:15:16;;;;;;;1.50;0.90;;;22.80;77.90;;;;;;5030452;28;20467;-78
2021/08/24 09:17:43;;;;;;;1.50;0.90;;;22.90;76.70;;;;;;5014733;28;20478;-77
2021/08/24 09:20:17;;;;;;;1.50;0.90;;;22.90;76.40;;;;;;5003749;28;20479;-78
2021/08/24 09:22:44;;;;;;;1.50;1.00;;;22.90;76.30;;;;;;5021282;28;20470;-78
2021/08/24 09:25:16;;;;;;;1.50;0.90;;;23.00;77.60;;;;;;5018166;28;20466;-77
2021/08/24 09:27:50;;;;;;;1.50;0.90;;;23.10;76.40;;;;;;5043091;28;20572;-78
2021/08/24 09:30:19;;;;;;;1.50;0.90;;;23.20;74.90;;;;;;5026330;28;20825;-78
2021/08/24 09:32:46;;;;;;;1.60;1.00;;;23.20;73.10;;;;;;5021888;28;20479;-79
2021/08/24 09:35:27;;;;;;;1.50;0.90;;;23.20;73.00;;;;;;5007068;28;20475;-77
2021/08/24 09:37:55;;;;;;;1.50;0.90;;;23.20;72.80;;;;;;5036269;28;20481;-78
2021/08/24 09:40:36;;;;;;;1.50;0.90;;;23.20;72.80;;;;;;5025187;28;20990;-78
2021/08/24 09:43:20;;;;;;;1.50;0.90;;;23.20;72.10;;;;;;5042104;28;20968;-78
2021/08/24 09:45:56;;;;;;;1.50;0.90;;;23.20;72.10;;;;;;5017118;28;20455;-78
2021/08/24 09:48:23;;;;;;;1.50;0.80;;;23.30;71.10;;;;;;5050499;28;20463;-76
2021/08/24 09:50:50;;;;;;;1.50;0.90;;;23.30;72.00;;;;;;5015163;28;21054;-78
2021/08/24 09:53:30;;;;;;;1.50;0.90;;;23.20;70.70;;;;;;5050750;28;20860;-77
2021/08/24 09:55:57;;;;;;;1.47;0.90;;;23.10;71.90;;;;;;5016924;28;20860;-77
2021/08/24 09:58:32;;;;;;;1.50;0.90;;;23.10;71.90;;;;;;5053417;28;20467;-78
2021/08/24 10:01:04;;;;;;;1.50;0.90;;;23.20;74.10;;;;;;5015669;28;20505;-77
2021/08/24 10:03:37;;;;;;;1.50;0.90;;;23.20;71.30;;;;;;5035270;28;20468;-79
2021/08/24 10:06:08;;;;;;;1.50;0.90;;;23.40;71.20;;;;;;5015951;28;20529;-79
2021/08/24 10:08:45;;;;;;;1.50;0.90;;;23.50;72.30;;;;;;5021354;28;20468;-78
2021/08/24 10:11:14;;;;;;;1.50;0.87;;;23.60;71.00;;;;;;5006942;28;21075;-79
2021/08/24 10:14:17;;;;;;;1.50;0.90;;;23.70;71.90;;;;;;5044997;28;20493;-77
2021/08/24 10:16:47;;;;;;;1.50;0.90;;;23.70;71.90;;;;;;4997670;28;20693;-77
2021/08/24 10:19:20;;;;;;;1.50;0.80;;;23.80;70.50;;;;;;5004367;28;20469;-76
2021/08/24 10:21:59;;;;;;;1.50;0.90;;;23.80;71.90;;;;;;5015745;28;20485;-77
2021/08/24 10:24:29;;;;;;;1.50;0.90;;;23.80;71.90;;;;;;5036100;28;20844;-77
2021/08/24 10:27:00;;;;;;;1.50;0.90;;;23.80;70.10;;;;;;5016821;28;20844;-78
2021/08/24 10:29:30;;;;;;;1.50;0.90;;;23.80;70.60;;;;;;5011821;28;20469;-80
2021/08/24 10:32:02;;;;;;;1.50;0.80;;;23.80;69.00;;;;;;5013569;28;21254;-78
2021/08/24 10:34:34;;;;;;;1.50;1.13;;;23.70;69.80;;;;;;5001715;28;20493;-78
2021/08/24 10:37:39;;;;;;;1.50;0.90;;;23.80;69.40;;;;;;5014301;28;20481;-76
2021/08/24 10:40:25;;;;;;;1.50;0.80;;;23.70;68.50;;;;;;5022325;28;20463;-77
2021/08/24 10:43:19;;;;;;;1.50;0.90;;;23.60;67.20;;;;;;5044330;28;20481;-77
2021/08/24 10:46:02;;;;;;;1.50;0.90;;;23.70;67.10;;;;;;5026164;28;21155;-77
2021/08/24 10:48:34;;;;;;;1.50;0.90;;;23.60;65.80;;;;;;4991440;28;20490;-76
2021/08/24 10:51:08;;;;;;;1.50;0.90;;;23.60;66.50;;;;;;4989870;28;20468;-75
2021/08/24 10:53:44;;;;;;;1.40;0.80;;;23.60;66.70;;;;;;5015478;28;20487;-75
2021/08/24 10:56:17;;;;;;;1.50;0.90;;;23.70;66.50;;;;;;4993908;28;20899;-76
2021/08/24 10:58:52;;;;;;;1.50;0.90;;;23.80;67.10;;;;;;5042754;28;20455;-77
2021/08/24 11:01:25;;;;;;;1.50;0.90;;;23.90;67.90;;;;;;5017098;28;20576;-76
2021/08/24 11:04:38;;;;;;;1.50;0.90;;;24.00;68.00;;;;;;5042645;28;20458;-78
2021/08/24 11:07:16;;;;;;;1.50;0.90;;;24.00;66.50;;;;;;4934823;28;20490;-77
2021/08/24 11:09:48;;;;;;;1.50;0.87;;;24.10;66.50;;;;;;5006136;28;20463;-77
2021/08/24 11:12:22;;;;;;;1.40;0.90;;;24.10;65.50;;;;;;5031163;28;20810;-76
2021/08/24 11:15:08;;;;;;;1.40;0.90;;;24.00;65.20;;;;;;5030115;28;20479;-76
2021/08/24 11:17:43;;;;;;;1.47;0.90;;;23.90;65.80;;;;;;5033871;28;20900;-77
2021/08/24 11:20:22;;;;;;;1.50;0.90;;;24.00;65.50;;;;;;5017915;28;20474;-76
2021/08/24 11:23:06;;;;;;;1.47;0.90;;;23.90;67.20;;;;;;5036946;28;20844;-76
2021/08/24 11:25:41;;;;;;;1.50;1.00;;;24.10;66.10;;;;;;5020920;28;20463;-76
2021/08/24 11:28:16;;;;;;;1.50;0.90;;;24.10;66.40;;;;;;5041544;28;20483;-77
2021/08/24 11:30:45;;;;;;;1.40;0.90;;;24.00;66.20;;;;;;5024883;28;20463;-77
2021/08/24 11:33:17;;;;;;;1.50;0.90;;;24.10;66.80;;;;;;5008921;28;20574;-76
2021/08/24 11:35:52;;;;;;;1.47;0.80;;;24.30;67.50;;;;;;5021881;28;20473;-76
2021/08/24 11:38:23;;;;;;;1.73;1.40;;;24.30;66.10;;;;;;4994567;28;20490;-77
2021/08/24 11:40:58;;;;;;;2.80;1.87;;;24.40;66.80;;;;;;5006969;28;20466;-76
2021/08/24 11:43:29;;;;;;;1.50;0.90;;;24.40;66.80;;;;;;5038392;28;20477;-75
2021/08/24 11:45:59;;;;;;;1.50;0.90;;;24.50;66.50;;;;;;5008723;28;20474;-75
2021/08/24 11:48:30;;;;;;;1.40;0.87;;;24.50;65.70;;;;;;5028690;28;21278;-76
2021/08/24 11:51:06;;;;;;;1.43;0.90;;;24.60;66.20;;;;;;5006569;28;20471;-76
2021/08/24 11:53:40;;;;;;;1.50;0.87;;;24.60;66.00;;;;;;5028961;28;20483;-76
2021/08/24 11:56:08;;;;;;;1.50;0.90;;;24.40;65.10;;;;;;5011629;28;20470;-75
2021/08/24 11:58:41;;;;;;;1.50;0.80;;;24.50;66.50;;;;;;5023343;28;20474;-78
2021/08/24 12:01:09;;;;;;;1.40;0.90;;;24.40;66.70;;;;;;5007266;28;20491;-77
2021/08/24 12:03:39;;;;;;;1.50;0.90;;;24.30;67.70;;;;;;5035341;28;20475;-77
2021/08/24 12:06:11;;;;;;;1.47;0.80;;;24.50;67.00;;;;;;5015372;28;20547;-77
2021/08/24 12:08:44;;;;;;;1.50;0.90;;;24.60;66.80;;;;;;5027704;28;20471;-76
2021/08/24 12:11:16;;;;;;;1.47;0.90;;;24.50;67.00;;;;;;5011585;28;20608;-77
2021/08/24 12:13:46;;;;;;;1.50;1.10;;;24.40;67.20;;;;;;5024342;28;20486;-76
2021/08/24 12:16:31;;;;;;;1.40;0.83;;;24.30;66.50;;;;;;5008940;28;20911;-78
2021/08/24 12:19:19;;;;;;;1.40;0.80;;;24.40;67.40;;;;;;5028586;28;20491;-77
2021/08/24 12:21:52;;;;;;;1.40;0.80;;;24.70;67.30;;;;;;5027414;28;20512;-77
2021/08/24 12:24:42;;;;;;;1.47;0.90;;;24.80;66.30;;;;;;5032136;28;20487;-76
2021/08/24 12:27:45;;;;;;;1.50;0.80;;;25.10;66.60;;;;;;5028719;28;20579;-76
2021/08/24 12:30:19;;;;;;;1.43;0.80;;;25.10;65.20;;;;;;5026497;28;21051;-77
2021/08/24 12:33:37;;;;;;;1.50;0.90;;;25.20;64.50;;;;;;5043594;28;20481;-77
2021/08/24 12:36:52;;;;;;;2.80;1.63;;;25.30;66.10;;;;;;5015369;28;20456;-77
2021/08/24 12:39:39;;;;;;;1.50;0.90;;;25.40;63.40;;;;;;5031743;28;20990;-76
2021/08/24 12:42:26;;;;;;;1.50;0.90;;;25.50;63.40;;;;;;5035304;28;20488;-76
2021/08/24 12:45:16;;;;;;;1.47;0.80;;;25.50;64.60;;;;;;5029460;28;20900;-75
2021/08/24 12:47:46;;;;;;;1.50;0.80;;;25.40;65.30;;;;;;5010687;28;20517;-77
2021/08/24 12:51:01;;;;;;;1.53;1.00;;;25.30;64.70;;;;;;5006743;28;20459;-76
2021/08/24 12:54:02;;;;;;;1.43;0.90;;;25.10;64.90;;;;;;4989150;28;20495;-76
2021/08/24 12:56:44;;;;;;;1.47;0.80;;;25.10;64.00;;;;;;5006879;28;20549;-78
2021/08/24 12:59:29;;;;;;;1.47;0.90;;;25.20;64.50;;;;;;5029429;28;20462;-77
2021/08/24 13:02:21;;;;;;;1.50;0.90;;;25.40;63.60;;;;;;5016598;28;20510;-78
2021/08/24 13:04:50;;;;;;;1.50;0.90;;;25.40;63.20;;;;;;5008005;28;20463;-77
2021/08/24 13:07:19;;;;;;;1.47;0.90;;;25.50;65.20;;;;;;5012212;28;20601;-79
2021/08/24 13:09:50;;;;;;;1.50;0.90;;;25.50;64.50;;;;;;5015272;28;20459;-77
2021/08/24 13:12:38;;;;;;;1.50;0.90;;;25.70;65.30;;;;;;5005611;28;20501;-77
2021/08/24 13:15:28;;;;;;;1.50;0.80;;;26.00;63.20;;;;;;5001219;28;20502;-76
2021/08/24 13:18:00;;;;;;;1.50;0.80;;;26.10;63.10;;;;;;5007290;28;20474;-76
2021/08/24 13:20:31;;;;;;;1.50;0.90;;;26.30;63.90;;;;;;5003877;28;20562;-77
2021/08/24 13:23:03;;;;;;;1.50;0.90;;;26.30;62.50;;;;;;5009776;28;20514;-76
2021/08/24 13:25:34;;;;;;;1.47;0.90;;;26.10;61.60;;;;;;5020620;28;20458;-78
2021/08/24 13:28:05;;;;;;;1.47;0.90;;;26.00;62.90;;;;;;5019620;28;20478;-77
2021/08/24 13:30:36;;;;;;;1.47;0.80;;;25.90;61.90;;;;;;5025715;28;20466;-77
2021/08/24 13:33:06;;;;;;;1.50;0.80;;;25.80;63.10;;;;;;5025991;28;20496;-77
2021/08/24 13:35:45;;;;;;;1.50;0.90;;;25.50;62.70;;;;;;5020299;28;20602;-78
2021/08/24 13:38:22;;;;;;;1.50;0.90;;;25.30;63.40;;;;;;4994103;28;20582;-77
2021/08/24 13:40:51;;;;;;;1.47;0.83;;;25.10;64.70;;;;;;4994283;28;20475;-77
2021/08/24 13:43:24;;;;;;;1.47;0.80;;;25.10;65.30;;;;;;5018259;28;20996;-78
2021/08/24 13:45:52;;;;;;;1.47;0.80;;;25.10;65.20;;;;;;4995251;28;20968;-78
2021/08/24 13:48:21;;;;;;;1.50;0.90;;;25.00;65.10;;;;;;5014656;28;21341;-77
2021/08/24 13:50:58;;;;;;;2.17;1.83;;;25.20;65.80;;;;;;4992808;28;20460;-78
2021/08/24 13:53:25;;;;;;;1.50;0.83;;;25.20;65.40;;;;;;5014551;28;20539;-79
2021/08/24 13:55:55;;;;;;;1.47;0.90;;;25.40;66.60;;;;;;4992788;28;20909;-78
2021/08/24 13:58:30;;;;;;;1.47;0.90;;;25.60;66.30;;;;;;5017856;28;20478;-77
2021/08/24 14:01:04;;;;;;;1.50;0.80;;;25.70;66.00;;;;;;4993918;28;20528;-78
2021/08/24 14:03:33;;;;;;;1.50;0.90;;;25.90;67.10;;;;;;5016202;28;20528;-79
2021/08/24 14:06:02;;;;;;;1.50;0.90;;;25.90;65.80;;;;;;4988587;28;20846;-78